← Back to dashboard

N807TJ

Outside Mexico
Hex aafd90 · Live map
Category since2026-09-05T06:38:14.585648+00:00 (2026-09-05 00:38:14 Mexico City time)
Airline / operatorEastern Air Express
Aircraft typeBoeing 737-400
Max capacity~168 (typical high-density figure for this aircraft type (not operator-confirmed))
Tracking site profileView on Airfleets.net
Last known position32.3793, -106.7877
Estimated destinationOutside Mexico -- no longer heading to a Mexican destination
No pings recorded today (2026-09-06). Last seen ~12.8h ago (2026-09-05 22:06:57 Mexico City time), near 32.3793, -106.7877 — outside Mexico. Showing the most recent day with data (2026-09-05) below.

Status-change events this day

No status-change events recorded this day.

Pings for 2026-09-05 (Mexico City time)

2026-09-05T19:51:56.871889+00:00 -- 33.1960, -101.09672026-09-05T20:06:59.823642+00:00 -- 32.4950, -99.68572026-09-05T20:22:01.710317+00:00 -- 32.4119, -99.68222026-09-05T20:37:02.010609+00:00 -- 32.4119, -99.68222026-09-05T20:51:55.266777+00:00 -- 32.4119, -99.68222026-09-05T21:06:58.882058+00:00 -- 32.4119, -99.68222026-09-05T21:22:01.766596+00:00 -- 32.4119, -99.68222026-09-05T21:37:01.107061+00:00 -- 32.4119, -99.68222026-09-05T21:52:02.081301+00:00 -- 32.4119, -99.68222026-09-05T22:06:59.149190+00:00 -- 32.4119, -99.68222026-09-05T22:21:55.788446+00:00 -- 32.4119, -99.68222026-09-05T22:36:54.866447+00:00 -- 32.4119, -99.68222026-09-05T22:52:04.943389+00:00 -- 32.4119, -99.68222026-09-05T23:06:53.174259+00:00 -- 32.4098, -99.67692026-09-05T23:21:55.885498+00:00 -- 32.9840, -100.68922026-09-05T23:37:01.637052+00:00 -- 34.1546, -102.34392026-09-05T23:52:00.834530+00:00 -- 35.5377, -103.55512026-09-06T00:06:56.694806+00:00 -- 36.7697, -104.96622026-09-06T00:21:54.778064+00:00 -- 37.8307, -106.68392026-09-06T00:36:53.996200+00:00 -- 38.8770, -108.47062026-09-06T01:06:56.193657+00:00 -- 40.2973, -111.97152026-09-06T02:51:53.000699+00:00 -- 39.9459, -111.88032026-09-06T03:07:00.293323+00:00 -- 38.7637, -110.40302026-09-06T03:21:59.346632+00:00 -- 37.4059, -108.72992026-09-06T03:36:57.837340+00:00 -- 35.6756, -108.10082026-09-06T03:52:00.094194+00:00 -- 33.9138, -107.48882026-09-06T04:06:57.100762+00:00 -- 32.3793, -106.7877
first ping this day    most recent ping this day    Simple bounding-box plot (no map tiles, no internet needed) -- hover a point for its exact time/position.
Time (UTC)Time (Mexico City, UTC-6)PositionZoneAltitudeGround speed
⚠️ No signal from 2026-09-05 00:38:14 to 2026-09-05 13:51:56 (dark for ~13.2h)
2026-09-05T19:51:56.871889+00:002026-09-05 13:51:5633.1960, -101.096723000433 kts
2026-09-05T20:06:59.823642+00:002026-09-05 14:06:5932.4950, -99.68573100149 kts
2026-09-05T20:22:01.710317+00:002026-09-05 14:22:0132.4119, -99.6822ground
2026-09-05T20:37:02.010609+00:002026-09-05 14:37:0232.4119, -99.6822ground0 kts
2026-09-05T20:51:55.266777+00:002026-09-05 14:51:5532.4119, -99.6822ground0 kts
2026-09-05T21:06:58.882058+00:002026-09-05 15:06:5832.4119, -99.6822ground0 kts
2026-09-05T21:22:01.766596+00:002026-09-05 15:22:0132.4119, -99.6822ground0 kts
2026-09-05T21:37:01.107061+00:002026-09-05 15:37:0132.4119, -99.6822ground0 kts
2026-09-05T21:52:02.081301+00:002026-09-05 15:52:0232.4119, -99.6822ground0 kts
2026-09-05T22:06:59.149190+00:002026-09-05 16:06:5932.4119, -99.6822ground0 kts
2026-09-05T22:21:55.788446+00:002026-09-05 16:21:5532.4119, -99.6822ground0 kts
2026-09-05T22:36:54.866447+00:002026-09-05 16:36:5432.4119, -99.6822ground0 kts
2026-09-05T22:52:04.943389+00:002026-09-05 16:52:0432.4119, -99.6822ground0 kts
2026-09-05T23:06:53.174259+00:002026-09-05 17:06:5332.4098, -99.6769ground6 kts
2026-09-05T23:21:55.885498+00:002026-09-05 17:21:5532.9840, -100.689225600441 kts
2026-09-05T23:37:01.637052+00:002026-09-05 17:37:0134.1546, -102.343934000421 kts
2026-09-05T23:52:00.834530+00:002026-09-05 17:52:0035.5377, -103.555134000427 kts
2026-09-06T00:06:56.694806+00:002026-09-05 18:06:5636.7697, -104.966234000422 kts
2026-09-06T00:21:54.778064+00:002026-09-05 18:21:5437.8307, -106.683934000419 kts
2026-09-06T00:36:53.996200+00:002026-09-05 18:36:5338.8770, -108.470634000420 kts
⚠️ No signal from 2026-09-05 18:36:53 to 2026-09-05 19:06:56 (dark for ~30m)
2026-09-06T01:06:56.193657+00:002026-09-05 19:06:5640.2973, -111.97159775244 kts
⚠️ No signal from 2026-09-05 19:06:56 to 2026-09-05 20:51:53 (dark for ~1.7h)
2026-09-06T02:51:53.000699+00:002026-09-05 20:51:5339.9459, -111.880315225330 kts
2026-09-06T03:07:00.293323+00:002026-09-05 21:07:0038.7637, -110.403035000452 kts
2026-09-06T03:21:59.346632+00:002026-09-05 21:21:5937.4059, -108.729935000428 kts
2026-09-06T03:36:57.837340+00:002026-09-05 21:36:5735.6756, -108.100835000436 kts
2026-09-06T03:52:00.094194+00:002026-09-05 21:52:0033.9138, -107.488835000435 kts
2026-09-06T04:06:57.100762+00:002026-09-05 22:06:5732.3793, -106.7877355 kts
⚠️ No signal since 2026-09-05 22:06:57 (dark for ~1.7h as of this page's last update -- still ongoing)